createdAt,value
2019-03-28T00:01:58.247Z,15.07
2019-03-28T00:04:29.390Z,13.53
2019-03-28T00:07:00.522Z,15.20
2019-03-28T00:09:31.357Z,13.97
2019-03-28T00:12:02.076Z,14.03
2019-03-28T00:14:32.793Z,14.67
2019-03-28T00:17:03.517Z,15.00
2019-03-28T00:19:34.296Z,13.60
2019-03-28T00:22:05.819Z,13.20
2019-03-28T00:24:41.307Z,16.53
2019-03-28T00:27:12.577Z,14.70
2019-03-28T00:29:43.292Z,13.60
2019-03-28T00:32:14.076Z,14.53
2019-03-28T00:34:44.801Z,15.33
2019-03-28T00:37:15.870Z,15.00
2019-03-28T00:39:46.872Z,16.33
2019-03-28T00:42:17.940Z,16.23
2019-03-28T00:44:48.741Z,15.93
2019-03-28T00:47:19.796Z,14.83
2019-03-28T00:49:50.926Z,17.97
2019-03-28T00:52:22.380Z,17.27
2019-03-28T00:54:53.519Z,16.70
2019-03-28T00:57:24.437Z,16.63
2019-03-28T00:59:55.143Z,13.83
2019-03-28T01:02:26.121Z,13.70
2019-03-28T01:04:57.004Z,14.33
2019-03-28T01:07:27.894Z,13.07
2019-03-28T01:09:58.605Z,13.30
2019-03-28T01:12:29.496Z,14.00
2019-03-28T01:15:00.359Z,16.10
2019-03-28T01:17:31.739Z,16.50
2019-03-28T01:20:02.572Z,15.70
2019-03-28T01:22:33.330Z,14.47
2019-03-28T01:25:04.135Z,14.70
2019-03-28T01:27:35.173Z,13.77
2019-03-28T01:30:06.996Z,14.27
2019-03-28T01:32:37.790Z,13.17
2019-03-28T01:35:09.036Z,15.97
2019-03-28T01:37:39.703Z,14.67
2019-03-28T01:40:10.715Z,16.13
2019-03-28T01:42:41.750Z,13.33
2019-03-28T01:45:12.997Z,14.00
2019-03-28T01:47:43.770Z,11.83
2019-03-28T01:50:15.444Z,14.03
2019-03-28T01:52:46.295Z,13.77
2019-03-28T01:55:17.474Z,14.40
2019-03-28T01:57:48.145Z,16.53
2019-03-28T02:00:19.084Z,13.77
2019-03-28T02:02:50.244Z,17.03
2019-03-28T02:05:21.268Z,15.47
2019-03-28T02:07:52.054Z,17.97
2019-03-28T02:10:22.841Z,16.37
2019-03-28T02:12:53.554Z,18.23
2019-03-28T02:15:24.345Z,17.07
2019-03-28T02:17:55.496Z,17.17
2019-03-28T02:20:26.215Z,17.27
2019-03-28T02:22:56.910Z,19.80
2019-03-28T02:25:27.716Z,19.23
2019-03-28T02:27:58.422Z,18.47
2019-03-28T02:30:36.281Z,19.53
2019-03-28T02:33:06.991Z,18.20
2019-03-28T02:35:37.781Z,18.60
2019-03-28T02:38:08.590Z,18.50
2019-03-28T02:40:39.323Z,20.47
2019-03-28T02:43:10.165Z,19.47
2019-03-28T02:45:40.941Z,20.10
2019-03-28T02:48:13.120Z,23.80
2019-03-28T02:50:43.939Z,19.70
2019-03-28T02:53:14.939Z,21.10
2019-03-28T02:55:45.646Z,18.00
2019-03-28T02:58:16.422Z,18.90
2019-03-28T03:00:48.102Z,20.03
2019-03-28T03:03:19.660Z,20.33
2019-03-28T03:05:50.617Z,19.20
2019-03-28T03:08:21.320Z,19.77
2019-03-28T03:10:52.013Z,19.20
2019-03-28T03:13:22.782Z,19.90
2019-03-28T03:15:53.488Z,20.87
2019-03-28T03:18:24.479Z,20.83
2019-03-28T03:20:55.286Z,20.77
2019-03-28T03:23:25.967Z,22.20
2019-03-28T03:25:56.705Z,20.50
2019-03-28T03:28:27.736Z,23.00
2019-03-28T03:30:58.542Z,21.30
2019-03-28T03:33:29.249Z,20.20
2019-03-28T03:36:00.069Z,20.93
2019-03-28T03:38:30.745Z,24.20
2019-03-28T03:41:01.464Z,25.10
2019-03-28T03:43:32.620Z,25.20
2019-03-28T03:46:03.332Z,22.80
2019-03-28T03:48:34.080Z,19.37
2019-03-28T03:51:04.893Z,18.77
2019-03-28T03:53:35.653Z,20.60
2019-03-28T03:56:07.141Z,21.77
2019-03-28T03:58:38.044Z,25.17
2019-03-28T04:01:08.756Z,21.30
2019-03-28T04:03:39.456Z,24.07
2019-03-28T04:06:10.168Z,24.37
2019-03-28T04:08:40.887Z,22.40
2019-03-28T04:11:11.998Z,20.23
2019-03-28T04:13:42.681Z,22.57
2019-03-28T04:16:13.366Z,19.80
2019-03-28T04:18:44.384Z,20.10
2019-03-28T04:21:15.160Z,18.80
2019-03-28T04:23:46.271Z,18.47
2019-03-28T04:26:17.092Z,22.87
2019-03-28T04:28:47.821Z,20.63
2019-03-28T04:31:18.510Z,23.10
2019-03-28T04:33:49.211Z,23.13
2019-03-28T04:36:19.959Z,23.40
2019-03-28T04:38:50.838Z,19.40
2019-03-28T04:41:21.558Z,19.60
2019-03-28T04:43:55.680Z,21.27
2019-03-28T04:46:24.848Z,20.33
2019-03-28T04:48:55.670Z,19.77
2019-03-28T04:51:26.888Z,22.40
2019-03-28T04:53:58.211Z,21.83
2019-03-28T04:56:28.931Z,23.57
2019-03-28T04:58:59.627Z,20.50
2019-03-28T05:01:30.547Z,24.07
2019-03-28T05:04:01.267Z,20.93
2019-03-28T05:06:32.945Z,19.70
2019-03-28T05:09:05.683Z,20.57
2019-03-28T05:11:36.460Z,21.33
2019-03-28T05:14:07.240Z,21.13
2019-03-28T05:16:38.061Z,19.73
2019-03-28T05:19:08.766Z,19.63
2019-03-28T05:21:39.551Z,18.63
2019-03-28T05:24:10.359Z,18.23
2019-03-28T05:26:41.334Z,18.80
2019-03-28T05:29:12.164Z,20.90
2019-03-28T05:31:43.008Z,19.80
2019-03-28T05:34:13.731Z,18.57
2019-03-28T05:36:44.572Z,17.67
2019-03-28T05:39:15.290Z,16.10
2019-03-28T05:41:46.023Z,20.60
2019-03-28T05:44:17.304Z,17.50
2019-03-28T05:46:48.057Z,18.27
2019-03-28T05:49:19.052Z,19.23
2019-03-28T05:51:49.767Z,17.60
2019-03-28T05:54:20.879Z,21.43
2019-03-28T05:56:51.922Z,19.23
2019-03-28T05:59:22.803Z,21.40
2019-03-28T06:01:53.950Z,19.33
2019-03-28T06:04:24.724Z,18.50
2019-03-28T06:06:55.448Z,16.90
2019-03-28T06:09:26.230Z,16.73
2019-03-28T06:11:58.708Z,19.83
2019-03-28T06:14:29.742Z,18.90
2019-03-28T06:17:00.577Z,21.47
2019-03-28T06:19:31.493Z,26.63
2019-03-28T06:22:02.261Z,20.10
2019-03-28T06:24:33.241Z,18.47
2019-03-28T06:27:04.183Z,18.87
2019-03-28T06:29:34.951Z,21.10
2019-03-28T06:32:06.140Z,20.13
2019-03-28T06:34:36.969Z,16.77
2019-03-28T06:37:08.632Z,19.40
2019-03-28T06:39:40.595Z,16.97
2019-03-28T06:42:11.264Z,17.10
2019-03-28T06:44:42.100Z,20.80
2019-03-28T06:47:13.347Z,17.70
2019-03-28T06:49:44.160Z,21.03
2019-03-28T06:52:15.319Z,16.87
2019-03-28T06:54:46.887Z,17.33
2019-03-28T06:57:18.915Z,23.43
2019-03-28T06:59:49.903Z,19.73
2019-03-28T07:02:22.077Z,21.43
2019-03-28T07:04:53.031Z,22.87
2019-03-28T07:07:24.055Z,22.50
2019-03-28T07:09:54.829Z,23.27
2019-03-28T07:12:25.649Z,17.50
2019-03-28T07:14:59.371Z,21.97
2019-03-28T07:17:28.896Z,21.07
2019-03-28T07:19:59.700Z,21.03
2019-03-28T07:22:30.476Z,23.07
2019-03-28T07:25:01.199Z,22.30
2019-03-28T07:27:32.094Z,21.07
2019-03-28T07:30:02.882Z,18.03
2019-03-28T07:32:33.743Z,19.90
2019-03-28T07:35:05.535Z,21.33
2019-03-28T07:37:36.347Z,24.43
2019-03-28T07:40:08.967Z,20.33
2019-03-28T07:42:40.270Z,19.43
2019-03-28T07:45:11.801Z,22.87
2019-03-28T07:47:42.571Z,23.53
2019-03-28T07:50:14.016Z,21.97
2019-03-28T07:52:44.918Z,21.40
2019-03-28T07:55:16.631Z,19.80
2019-03-28T07:57:48.120Z,19.73
2019-03-28T08:00:19.089Z,20.43
2019-03-28T08:02:50.102Z,21.93
2019-03-28T08:05:21.304Z,22.23
2019-03-28T08:07:59.137Z,20.43
2019-03-28T08:10:29.923Z,20.37
2019-03-28T08:13:00.799Z,23.37
2019-03-28T08:15:31.599Z,20.70
2019-03-28T08:18:02.297Z,17.87
2019-03-28T08:20:33.401Z,20.57
2019-03-28T08:23:04.278Z,22.83
2019-03-28T08:25:35.015Z,20.97
2019-03-28T08:28:05.858Z,17.47
2019-03-28T08:30:38.883Z,19.23
2019-03-28T08:33:10.357Z,17.37
2019-03-28T08:35:41.592Z,19.03
2019-03-28T08:38:13.102Z,25.67
2019-03-28T08:40:45.393Z,20.27
2019-03-28T08:43:16.098Z,19.60
2019-03-28T08:45:46.799Z,16.47
2019-03-28T08:48:18.603Z,17.70
2019-03-28T08:50:49.540Z,15.30
2019-03-28T08:53:20.293Z,17.70
2019-03-28T08:55:51.094Z,18.37
2019-03-28T08:58:21.790Z,15.87
2019-03-28T09:00:53.129Z,17.83
2019-03-28T09:03:24.015Z,19.73
2019-03-28T09:05:54.789Z,16.77
2019-03-28T09:08:26.156Z,20.37
2019-03-28T09:10:57.206Z,22.00
2019-03-28T09:13:28.016Z,18.93
2019-03-28T09:15:59.421Z,15.90
2019-03-28T09:18:30.922Z,16.53
2019-03-28T09:21:01.641Z,16.73
2019-03-28T09:23:32.385Z,16.97
2019-03-28T09:26:05.788Z,16.23
2019-03-28T09:28:36.635Z,16.03
2019-03-28T09:31:19.390Z,14.90
2019-03-28T09:33:41.045Z,18.83
2019-03-28T09:36:12.199Z,18.57
2019-03-28T09:38:42.995Z,15.40
2019-03-28T09:41:13.971Z,18.87
2019-03-28T09:43:55.309Z,18.90
2019-03-28T09:46:17.487Z,14.87
2019-03-28T09:48:48.202Z,16.70
2019-03-28T09:51:18.948Z,18.60
2019-03-28T09:53:52.410Z,16.13
2019-03-28T09:56:23.606Z,18.30
2019-03-28T09:58:54.524Z,17.30
2019-03-28T10:01:25.700Z,18.27
2019-03-28T10:03:56.372Z,18.17
2019-03-28T10:06:27.490Z,18.60
2019-03-28T10:08:58.199Z,17.70
2019-03-28T10:11:28.947Z,17.20
2019-03-28T10:14:00.124Z,16.90
2019-03-28T10:16:31.035Z,18.17
2019-03-28T10:19:01.765Z,22.30
2019-03-28T10:21:32.473Z,19.70
2019-03-28T10:24:03.390Z,21.60
2019-03-28T10:26:34.168Z,17.13
2019-03-28T10:29:05.093Z,18.53
2019-03-28T10:31:35.951Z,18.93
2019-03-28T10:34:06.823Z,15.90
2019-03-28T10:36:37.517Z,17.77
2019-03-28T10:39:10.170Z,17.93
2019-03-28T10:41:40.882Z,17.20
2019-03-28T10:44:11.999Z,19.40
2019-03-28T10:46:43.789Z,14.73
2019-03-28T10:49:15.661Z,15.77
2019-03-28T10:51:46.646Z,16.90
2019-03-28T10:54:20.309Z,15.07
2019-03-28T10:56:52.334Z,13.10
2019-03-28T10:59:24.034Z,13.83
2019-03-28T11:01:54.857Z,15.37
2019-03-28T11:04:25.814Z,13.03
2019-03-28T11:06:56.805Z,14.10
2019-03-28T11:09:28.322Z,17.67
2019-03-28T11:11:58.987Z,11.77
2019-03-28T11:14:30.109Z,11.77
2019-03-28T11:17:01.078Z,12.63
2019-03-28T11:19:32.369Z,13.97
2019-03-28T11:22:03.085Z,12.60
2019-03-28T11:24:34.119Z,11.40
2019-03-28T11:27:04.918Z,12.63
2019-03-28T11:29:35.629Z,11.70
2019-03-28T11:32:06.709Z,13.63
2019-03-28T11:34:37.663Z,11.07
2019-03-28T11:37:26.408Z,14.03
2019-03-28T11:40:13.525Z,13.00
2019-03-28T11:42:44.673Z,10.33
2019-03-28T11:45:15.995Z,10.40
2019-03-28T11:47:47.438Z,8.53
2019-03-28T11:50:18.866Z,9.97
2019-03-28T11:52:49.799Z,12.00
2019-03-28T11:55:20.721Z,13.03
2019-03-28T11:57:51.426Z,9.93
2019-03-28T12:00:23.086Z,12.60
2019-03-28T12:02:54.288Z,12.23
2019-03-28T12:05:25.232Z,11.57
2019-03-28T12:07:56.002Z,11.27
2019-03-28T12:10:26.785Z,12.37
2019-03-28T12:12:57.578Z,12.70
2019-03-28T12:15:28.563Z,12.17
2019-03-28T12:17:59.604Z,14.07
2019-03-28T12:20:31.156Z,13.33
2019-03-28T12:23:01.954Z,12.67
2019-03-28T12:25:32.674Z,11.70
2019-03-28T12:28:03.819Z,11.37
2019-03-28T12:30:34.522Z,12.63
2019-03-28T12:33:05.307Z,12.30
2019-03-28T12:35:36.028Z,11.70
2019-03-28T12:38:06.906Z,11.70
2019-03-28T12:40:37.820Z,10.80
2019-03-28T12:43:08.906Z,10.13
2019-03-28T12:45:40.042Z,11.20
2019-03-28T12:48:10.783Z,12.73
2019-03-28T12:50:41.683Z,10.90
2019-03-28T12:53:12.401Z,11.07
2019-03-28T12:55:43.098Z,11.57
2019-03-28T12:58:13.828Z,12.27
2019-03-28T13:00:44.534Z,11.13
2019-03-28T13:03:15.276Z,21.77
2019-03-28T13:05:45.970Z,12.67
2019-03-28T13:08:17.628Z,13.97
2019-03-28T13:10:48.738Z,12.23
2019-03-28T13:13:19.484Z,11.30
2019-03-28T13:15:50.492Z,9.17
2019-03-28T13:18:21.326Z,11.60
2019-03-28T13:20:52.028Z,9.80
2019-03-28T13:23:23.168Z,10.30
2019-03-28T13:25:54.007Z,10.70
2019-03-28T13:28:24.801Z,11.70
2019-03-28T13:30:55.515Z,12.77
2019-03-28T13:33:26.423Z,10.67
2019-03-28T13:35:58.183Z,13.23
2019-03-28T13:38:29.382Z,12.63
2019-03-28T13:41:00.149Z,11.60
2019-03-28T13:43:31.014Z,11.60
2019-03-28T13:46:01.832Z,12.10
2019-03-28T13:48:32.645Z,11.03
2019-03-28T13:51:03.837Z,11.97
2019-03-28T13:53:39.825Z,9.57
2019-03-28T13:56:07.774Z,10.67
2019-03-28T13:58:39.407Z,10.97
2019-03-28T14:01:10.257Z,9.37
2019-03-28T14:03:41.039Z,11.37
2019-03-28T14:06:12.465Z,12.70
2019-03-28T14:08:43.178Z,13.73
2019-03-28T14:11:14.412Z,10.17
2019-03-28T14:13:45.693Z,11.77
2019-03-28T14:16:16.560Z,11.53
2019-03-28T14:18:47.259Z,11.53
2019-03-28T14:21:18.062Z,10.13
2019-03-28T14:23:49.021Z,14.17
2019-03-28T14:26:19.801Z,11.63
2019-03-28T14:28:50.656Z,11.17
2019-03-28T14:31:21.428Z,11.70
2019-03-28T14:33:52.405Z,11.03
2019-03-28T14:36:25.136Z,10.30
2019-03-28T14:38:55.703Z,12.70
2019-03-28T14:41:26.732Z,12.57
2019-03-28T14:43:57.755Z,12.17
2019-03-28T14:46:28.684Z,14.73
2019-03-28T14:48:59.566Z,12.53
2019-03-28T14:51:30.710Z,11.40
2019-03-28T14:54:01.484Z,12.57
2019-03-28T14:56:33.208Z,12.23
2019-03-28T14:59:05.769Z,11.80
2019-03-28T15:01:37.370Z,10.40
2019-03-28T15:04:09.770Z,11.50
2019-03-28T15:06:40.928Z,14.50
2019-03-28T15:09:12.150Z,12.10
2019-03-28T15:11:43.016Z,11.20
2019-03-28T15:14:14.025Z,11.27
2019-03-28T15:16:44.914Z,14.93
2019-03-28T15:19:17.075Z,11.60
2019-03-28T15:21:48.161Z,14.33
2019-03-28T15:24:19.027Z,17.07
2019-03-28T15:26:50.389Z,17.90
2019-03-28T15:29:22.226Z,13.90
2019-03-28T15:31:54.459Z,13.10
2019-03-28T15:34:25.447Z,15.10
2019-03-28T15:36:56.403Z,18.93
2019-03-28T15:39:27.946Z,17.07
2019-03-28T15:41:58.792Z,16.37
2019-03-28T15:44:29.623Z,15.17
2019-03-28T15:47:05.900Z,16.57
2019-03-28T15:49:37.441Z,18.03
2019-03-28T15:52:08.193Z,15.00
2019-03-28T15:54:39.653Z,15.43
2019-03-28T15:57:10.801Z,14.73
2019-03-28T15:59:41.503Z,19.13
2019-03-28T16:02:12.550Z,17.10
2019-03-28T16:04:43.266Z,18.27
2019-03-28T16:07:14.513Z,17.77
2019-03-28T16:09:46.655Z,18.40
2019-03-28T16:12:17.538Z,16.43
2019-03-28T16:14:48.653Z,15.83
2019-03-28T16:17:19.701Z,14.83
2019-03-28T16:19:50.514Z,16.57
2019-03-28T16:22:21.280Z,15.93
2019-03-28T16:24:52.265Z,13.03
2019-03-28T16:27:23.065Z,13.03
2019-03-28T16:29:54.473Z,15.17
2019-03-28T16:32:25.553Z,13.93
2019-03-28T16:34:56.756Z,16.43
2019-03-28T16:37:28.186Z,13.73
2019-03-28T16:39:59.029Z,17.07
2019-03-28T16:42:30.550Z,14.60
2019-03-28T16:45:01.565Z,17.63
2019-03-28T16:47:32.504Z,15.40
2019-03-28T16:50:03.970Z,16.30
2019-03-28T16:52:35.075Z,16.97
2019-03-28T16:55:07.562Z,17.23
2019-03-28T16:57:38.316Z,20.93
2019-03-28T17:00:13.043Z,19.20
2019-03-28T17:02:44.305Z,18.40
2019-03-28T17:05:15.840Z,15.90
2019-03-28T17:07:47.468Z,19.80
2019-03-28T17:10:57.853Z,15.63
2019-03-28T17:13:29.064Z,19.00
2019-03-28T17:16:00.444Z,17.23
2019-03-28T17:18:31.638Z,18.10
2019-03-28T17:21:04.197Z,20.10
2019-03-28T17:23:35.407Z,17.60
2019-03-28T17:26:06.274Z,18.23
2019-03-28T17:28:37.261Z,16.47
2019-03-28T17:31:08.770Z,17.93
2019-03-28T17:33:39.637Z,15.70
2019-03-28T17:36:10.489Z,17.00
2019-03-28T17:38:41.372Z,16.80
2019-03-28T17:41:12.869Z,16.97
2019-03-28T17:43:44.435Z,16.80
2019-03-28T17:46:15.486Z,18.70
2019-03-28T17:48:51.687Z,15.37
2019-03-28T17:51:22.673Z,17.10
2019-03-28T17:53:56.094Z,16.20
2019-03-28T17:56:26.399Z,16.73
2019-03-28T17:58:59.450Z,18.23
2019-03-28T18:01:30.387Z,21.77
2019-03-28T18:04:01.199Z,18.13
2019-03-28T18:06:32.432Z,18.43
2019-03-28T18:09:04.767Z,18.60
2019-03-28T18:11:39.007Z,20.53
2019-03-28T18:14:09.900Z,18.60
2019-03-28T18:16:41.413Z,24.83
2019-03-28T18:19:13.013Z,18.97
2019-03-28T18:21:44.109Z,21.13
2019-03-28T18:24:15.632Z,18.93
2019-03-28T18:26:46.484Z,17.50
2019-03-28T18:29:19.190Z,18.90
2019-03-28T18:31:52.383Z,20.33
2019-03-28T18:34:22.797Z,20.07
2019-03-28T18:36:53.731Z,20.13
2019-03-28T18:39:24.473Z,19.23
2019-03-28T18:41:56.713Z,18.77
2019-03-28T18:44:27.650Z,19.80
2019-03-28T18:46:58.759Z,23.53
2019-03-28T18:49:30.945Z,17.63
2019-03-28T18:52:02.318Z,24.00
2019-03-28T18:54:33.944Z,21.00
2019-03-28T18:57:04.828Z,18.57
2019-03-28T18:59:35.776Z,20.43
2019-03-28T19:02:06.872Z,22.10
2019-03-28T19:04:37.971Z,20.70
2019-03-28T19:07:09.260Z,20.23
2019-03-28T19:09:40.962Z,21.30
2019-03-28T19:12:12.670Z,22.93
2019-03-28T19:14:47.070Z,24.60
2019-03-28T19:17:18.768Z,20.30
2019-03-28T19:19:49.765Z,23.53
2019-03-28T19:22:20.663Z,15.83
2019-03-28T19:24:54.219Z,16.47
2019-03-28T19:27:25.586Z,17.20
2019-03-28T19:29:56.976Z,18.43
2019-03-28T19:32:29.830Z,26.30
2019-03-28T19:35:03.004Z,21.60
2019-03-28T19:37:34.951Z,40.57
2019-03-28T19:40:07.861Z,25.00
2019-03-28T19:42:39.987Z,18.83
2019-03-28T19:45:14.538Z,20.03
2019-03-28T19:47:45.649Z,17.50
2019-03-28T19:50:29.282Z,14.27
2019-03-28T19:53:02.185Z,20.83
2019-03-28T19:55:33.050Z,18.70
2019-03-28T19:58:05.005Z,24.43
2019-03-28T20:00:37.451Z,20.10
2019-03-28T20:03:09.220Z,19.43
2019-03-28T20:05:47.759Z,20.03
2019-03-28T20:08:16.441Z,21.20
2019-03-28T20:10:48.944Z,20.63
2019-03-28T20:13:19.922Z,17.50
2019-03-28T20:15:52.283Z,22.17
2019-03-28T20:18:23.893Z,21.67
2019-03-28T20:20:55.726Z,22.70
2019-03-28T20:23:28.339Z,18.77
2019-03-28T20:26:00.406Z,20.60
2019-03-28T20:28:34.987Z,18.10
2019-03-28T20:31:06.117Z,17.13
2019-03-28T20:33:38.309Z,17.20
2019-03-28T20:36:35.621Z,17.97
2019-03-28T20:38:44.805Z,15.03
2019-03-28T20:41:19.023Z,19.93
2019-03-28T20:43:51.490Z,16.37
2019-03-28T20:46:23.641Z,16.73
2019-03-28T20:48:56.123Z,16.47
2019-03-28T20:51:27.685Z,23.47
2019-03-28T20:54:00.022Z,23.17
2019-03-28T20:56:30.981Z,29.77
2019-03-28T20:59:01.853Z,21.47
2019-03-28T21:01:32.977Z,17.10
2019-03-28T21:04:04.168Z,28.77
2019-03-28T21:06:35.720Z,19.97
2019-03-28T21:09:09.317Z,18.73
2019-03-28T21:11:40.756Z,21.60
2019-03-28T21:14:12.648Z,20.23
2019-03-28T21:16:44.543Z,25.87
2019-03-28T21:19:17.100Z,15.97
2019-03-28T21:21:49.337Z,18.03
2019-03-28T21:24:22.155Z,19.03
2019-03-28T21:26:54.785Z,20.57
2019-03-28T21:29:25.665Z,20.30
2019-03-28T21:31:59.028Z,17.73
2019-03-28T21:34:29.991Z,19.07
2019-03-28T21:37:02.580Z,19.97
2019-03-28T21:39:34.204Z,20.13
2019-03-28T21:42:07.471Z,21.87
2019-03-28T21:44:38.485Z,19.40
2019-03-28T21:47:10.772Z,18.57
2019-03-28T21:49:42.724Z,16.80
2019-03-28T21:52:14.350Z,16.93
2019-03-28T21:54:45.971Z,16.03
2019-03-28T21:57:18.815Z,18.07
2019-03-28T21:59:52.180Z,15.60
2019-03-28T22:02:24.866Z,19.20
2019-03-28T22:04:55.966Z,16.17
2019-03-28T22:07:28.153Z,17.03
2019-03-28T22:10:00.275Z,14.87
2019-03-28T22:12:31.306Z,16.00
2019-03-28T22:15:02.565Z,15.50
2019-03-28T22:17:33.501Z,18.57
2019-03-28T22:20:04.807Z,22.80
2019-03-28T22:22:36.249Z,16.50
2019-03-28T22:25:08.759Z,18.70
2019-03-28T22:27:41.230Z,17.47
2019-03-28T22:30:14.165Z,21.00
2019-03-28T22:32:48.297Z,18.60
2019-03-28T22:35:19.309Z,19.20
2019-03-28T22:37:51.997Z,26.33
2019-03-28T22:40:24.226Z,20.70
2019-03-28T22:42:55.031Z,20.33
2019-03-28T22:45:26.091Z,21.43
2019-03-28T22:48:09.791Z,17.97
2019-03-28T22:50:30.794Z,20.77
2019-03-28T22:53:02.436Z,21.37
2019-03-28T22:55:33.330Z,23.13
2019-03-28T22:58:04.865Z,27.17
2019-03-28T23:00:42.541Z,25.23
2019-03-28T23:03:16.784Z,21.73
2019-03-28T23:05:48.202Z,23.13
2019-03-28T23:08:20.360Z,27.97
2019-03-28T23:10:51.849Z,25.97
2019-03-28T23:13:23.627Z,27.00
2019-03-28T23:15:54.909Z,33.77
2019-03-28T23:18:26.433Z,33.97
2019-03-28T23:20:57.536Z,28.23
2019-03-28T23:23:29.327Z,27.53
2019-03-28T23:26:00.448Z,35.00
2019-03-28T23:28:31.957Z,37.10
2019-03-28T23:31:13.238Z,34.27
2019-03-28T23:33:47.130Z,31.63
2019-03-28T23:36:19.341Z,35.13
2019-03-28T23:38:50.434Z,32.93
2019-03-28T23:41:23.580Z,40.43
2019-03-28T23:43:55.158Z,37.60
2019-03-28T23:46:27.019Z,33.30
2019-03-28T23:49:38.671Z,28.43
2019-03-28T23:51:40.995Z,29.47
2019-03-28T23:54:13.179Z,33.70
2019-03-28T23:56:44.715Z,37.50
2019-03-28T23:59:15.651Z,28.30
